createdAt,value
2023-03-08T00:01:43.246Z,96227.00
2023-03-08T00:05:44.643Z,96238.00
2023-03-08T00:09:45.736Z,96235.00
2023-03-08T00:13:46.867Z,96242.00
2023-03-08T00:17:47.961Z,96238.00
2023-03-08T00:21:49.049Z,96242.00
2023-03-08T00:25:54.030Z,96248.00
2023-03-08T00:29:54.982Z,96241.00
2023-03-08T00:33:55.995Z,96245.00
2023-03-08T00:37:57.150Z,96241.00
2023-03-08T00:41:58.261Z,96241.00
2023-03-08T00:45:59.461Z,96242.00
2023-03-08T00:50:00.564Z,96242.00
2023-03-08T00:54:01.698Z,96251.00
2023-03-08T00:58:03.091Z,96239.00
2023-03-08T01:02:04.283Z,96237.00
2023-03-08T01:06:11.979Z,96229.00
2023-03-08T01:10:13.127Z,96229.00
2023-03-08T01:14:14.245Z,96234.00
2023-03-08T01:18:15.468Z,96218.00
2023-03-08T01:22:16.684Z,96228.00
2023-03-08T01:26:20.780Z,96221.00
2023-03-08T01:30:22.007Z,96219.00
2023-03-08T01:34:22.978Z,96208.00
2023-03-08T01:38:24.536Z,96208.00
2023-03-08T01:42:26.653Z,96205.00
2023-03-08T01:46:31.029Z,96192.00
2023-03-08T01:50:32.827Z,96193.00
2023-03-08T01:54:37.756Z,96192.00
2023-03-08T01:58:40.402Z,96190.00
2023-03-08T02:02:44.870Z,96186.00
2023-03-08T02:06:45.946Z,96177.00
2023-03-08T02:10:47.121Z,96173.00
2023-03-08T02:14:49.135Z,96168.00
2023-03-08T02:19:02.351Z,96163.00
2023-03-08T02:23:21.783Z,96163.00
2023-03-08T02:27:25.698Z,96145.00
2023-03-08T02:31:26.619Z,96147.00
2023-03-08T02:35:27.872Z,96133.00
2023-03-08T02:39:29.149Z,96135.00
2023-03-08T02:43:30.356Z,96123.00
2023-03-08T02:47:31.751Z,96127.00
2023-03-08T02:51:32.717Z,96127.00
2023-03-08T02:55:36.947Z,96128.00
2023-03-08T02:59:38.019Z,96124.00
2023-03-08T03:03:39.761Z,96104.00
2023-03-08T03:07:43.142Z,96101.00
2023-03-08T03:11:44.267Z,96103.00
2023-03-08T03:15:45.360Z,96107.00
2023-03-08T03:19:46.445Z,96093.00
2023-03-08T03:23:47.715Z,96091.00
2023-03-08T03:27:48.816Z,96095.00
2023-03-08T03:31:49.885Z,96089.00
2023-03-08T03:35:51.064Z,96089.00
2023-03-08T03:39:52.196Z,96079.00
2023-03-08T03:43:53.174Z,96084.00
2023-03-08T03:47:54.287Z,96084.00
2023-03-08T03:51:55.336Z,96078.00
2023-03-08T03:56:05.242Z,96076.00
2023-03-08T04:00:08.073Z,96065.00
2023-03-08T04:04:10.148Z,95925.00
2023-03-08T04:08:11.149Z,95941.00
2023-03-08T04:12:12.271Z,96072.00
2023-03-08T04:16:16.182Z,96058.00
2023-03-08T04:20:17.339Z,96060.00
2023-03-08T04:24:18.572Z,96056.00
2023-03-08T04:28:19.731Z,96050.00
2023-03-08T04:32:20.896Z,96049.00
2023-03-08T04:36:22.881Z,96050.00
2023-03-08T04:40:24.048Z,96057.00
2023-03-08T04:44:25.230Z,96053.00
2023-03-08T04:48:26.698Z,96043.00
2023-03-08T04:52:27.746Z,96036.00
2023-03-08T04:56:28.709Z,96030.00
2023-03-08T05:00:29.734Z,96027.00
2023-03-08T05:04:30.779Z,96024.00
2023-03-08T05:08:31.925Z,96011.00
2023-03-08T05:12:33.065Z,96009.00
2023-03-08T05:16:34.372Z,95991.00
2023-03-08T05:20:35.556Z,96005.00
2023-03-08T05:24:40.182Z,95988.00
2023-03-08T05:28:41.658Z,95978.00
2023-03-08T05:32:42.752Z,95978.00
2023-03-08T05:36:43.789Z,95972.00
2023-03-08T05:40:44.855Z,95967.00
2023-03-08T05:44:46.435Z,95955.00
2023-03-08T05:48:47.776Z,95947.00
2023-03-08T05:52:48.934Z,95948.00
2023-03-08T05:56:49.900Z,95938.00
2023-03-08T06:00:51.187Z,95944.00
2023-03-08T06:04:52.152Z,95943.00
2023-03-08T06:08:53.615Z,95952.00
2023-03-08T06:12:54.561Z,95949.00
2023-03-08T06:16:55.622Z,95933.00
2023-03-08T06:21:00.531Z,95940.00
2023-03-08T06:25:02.462Z,95940.00
2023-03-08T06:29:03.720Z,95923.00
2023-03-08T06:33:04.849Z,95921.00
2023-03-08T06:37:06.122Z,95926.00
2023-03-08T06:41:09.320Z,95924.00
2023-03-08T06:45:11.129Z,95923.00
2023-03-08T06:49:12.289Z,95916.00
2023-03-08T06:53:14.802Z,95903.00
2023-03-08T06:57:16.189Z,95913.00
2023-03-08T07:01:17.445Z,95891.00
2023-03-08T07:05:20.076Z,95893.00
2023-03-08T07:09:21.240Z,95886.00
2023-03-08T07:13:23.178Z,95886.00
2023-03-08T07:17:26.528Z,95869.00
2023-03-08T07:21:30.621Z,95857.00
2023-03-08T07:25:31.778Z,95858.00
2023-03-08T07:29:32.800Z,95857.00
2023-03-08T07:33:33.897Z,95838.00
2023-03-08T07:37:35.008Z,95835.00
2023-03-08T07:41:36.159Z,95817.00
2023-03-08T07:45:39.026Z,95808.00
2023-03-08T07:49:40.203Z,95811.00
2023-03-08T07:53:42.872Z,95788.00
2023-03-08T07:57:43.868Z,95794.00
2023-03-08T08:01:45.230Z,95791.00
2023-03-08T08:05:47.010Z,95783.00
2023-03-08T08:09:48.091Z,95769.00
2023-03-08T08:13:49.250Z,95764.00
2023-03-08T08:17:50.836Z,95752.00
2023-03-08T08:21:51.980Z,95749.00
2023-03-08T08:25:53.175Z,95742.00
2023-03-08T08:29:55.672Z,95745.00
2023-03-08T08:33:57.649Z,95739.00
2023-03-08T08:37:58.688Z,95728.00
2023-03-08T08:41:59.725Z,95710.00
2023-03-08T08:46:01.632Z,95720.00
2023-03-08T08:50:03.183Z,95695.00
2023-03-08T08:54:04.529Z,95682.00
2023-03-08T08:58:06.075Z,95673.00
2023-03-08T09:02:09.181Z,95669.00
2023-03-08T09:06:10.592Z,95674.00
2023-03-08T09:10:12.152Z,95647.00
2023-03-08T09:14:13.628Z,95639.00
2023-03-08T09:18:14.611Z,95648.00
2023-03-08T09:22:15.625Z,95655.00
2023-03-08T09:26:17.641Z,95646.00
2023-03-08T09:30:19.497Z,95641.00
2023-03-08T09:34:20.770Z,95642.00
2023-03-08T09:38:21.844Z,95620.00
2023-03-08T09:42:27.576Z,95642.00
2023-03-08T09:46:32.563Z,95643.00
2023-03-08T09:50:52.584Z,95630.00
2023-03-08T09:54:57.935Z,95635.00
2023-03-08T09:59:20.769Z,95623.00
2023-03-08T10:03:36.391Z,95619.00
2023-03-08T10:07:47.352Z,95605.00
2023-03-08T10:12:01.121Z,95586.00
2023-03-08T10:16:26.455Z,95579.00
2023-03-08T10:20:31.130Z,95589.00
2023-03-08T10:24:55.650Z,95592.00
2023-03-08T10:28:56.656Z,95561.00
2023-03-08T10:33:02.778Z,95573.00
2023-03-08T10:37:09.233Z,95574.00
2023-03-08T10:41:14.045Z,95552.00
2023-03-08T10:45:19.541Z,95549.00
2023-03-08T10:49:24.798Z,95537.00
2023-03-08T10:53:28.620Z,95548.00
2023-03-08T10:57:30.622Z,95548.00
2023-03-08T11:01:35.153Z,95518.00
2023-03-08T11:05:36.797Z,95535.00
2023-03-08T11:09:38.208Z,95523.00
2023-03-08T11:13:41.780Z,95522.00
2023-03-08T11:17:46.537Z,95526.00
2023-03-08T11:21:54.089Z,95515.00
2023-03-08T11:26:16.857Z,95523.00
2023-03-08T11:30:30.805Z,95528.00
2023-03-08T11:34:47.425Z,95516.00
2023-03-08T11:38:58.456Z,95520.00
2023-03-08T11:43:09.531Z,95516.00
2023-03-08T11:47:33.758Z,95506.00
2023-03-08T11:51:56.830Z,95500.00
2023-03-08T11:56:14.008Z,95499.00
2023-03-08T12:00:27.901Z,95481.00
2023-03-08T12:04:47.633Z,95482.00
2023-03-08T12:08:52.696Z,95476.00
2023-03-08T12:13:00.495Z,95474.00
2023-03-08T12:17:17.253Z,95472.00
2023-03-08T12:21:22.120Z,95468.00
2023-03-08T12:25:34.988Z,95461.00
2023-03-08T12:29:51.614Z,95465.00
2023-03-08T12:33:54.300Z,95450.00
2023-03-08T12:37:58.762Z,95438.00
2023-03-08T12:42:04.913Z,95443.00
2023-03-08T12:46:09.322Z,95322.00
2023-03-08T12:50:14.324Z,95447.00
2023-03-08T12:54:19.295Z,95445.00
2023-03-08T12:58:21.966Z,95451.00
2023-03-08T13:02:30.541Z,95453.00
2023-03-08T13:06:47.220Z,95441.00
2023-03-08T13:11:01.011Z,95454.00
2023-03-08T13:15:18.066Z,95433.00
2023-03-08T13:19:28.635Z,95434.00
2023-03-08T13:23:39.368Z,95434.00
2023-03-08T13:28:04.417Z,95439.00
2023-03-08T13:32:09.322Z,95429.00
2023-03-08T13:36:19.770Z,95426.00
2023-03-08T13:40:22.619Z,95422.00
2023-03-08T13:44:26.577Z,95422.00
2023-03-08T13:48:30.502Z,95429.00
2023-03-08T13:52:35.049Z,95431.00
2023-03-08T13:56:36.350Z,95423.00
2023-03-08T14:00:37.521Z,95414.00
2023-03-08T14:04:42.248Z,95414.00
2023-03-08T14:08:45.860Z,95423.00
2023-03-08T14:12:47.136Z,95438.00
2023-03-08T14:16:51.500Z,95418.00
2023-03-08T14:21:17.000Z,95417.00
2023-03-08T14:25:25.091Z,95406.00
2023-03-08T14:29:29.281Z,95390.00
2023-03-08T14:33:41.701Z,95380.00
2023-03-08T14:37:34.955Z,95374.00
2023-03-08T14:41:36.942Z,95373.00
2023-03-08T14:46:04.298Z,95369.00
2023-03-08T14:50:11.917Z,95352.00
2023-03-08T14:54:22.729Z,95338.00
2023-03-08T14:58:28.136Z,95333.00
2023-03-08T15:02:29.178Z,95328.00
2023-03-08T15:06:32.776Z,95318.00
2023-03-08T15:10:39.612Z,95314.00
2023-03-08T15:14:41.046Z,95314.00
2023-03-08T15:18:42.286Z,95318.00
2023-03-08T15:22:49.382Z,95325.00
2023-03-08T15:26:52.187Z,95322.00
2023-03-08T15:30:54.130Z,95325.00
2023-03-08T15:34:55.572Z,95343.00
2023-03-08T15:38:57.798Z,95319.00
2023-03-08T15:42:58.945Z,95311.00
2023-03-08T15:47:01.209Z,95313.00
2023-03-08T15:51:02.498Z,95310.00
2023-03-08T15:55:04.161Z,95312.00
2023-03-08T15:59:05.671Z,95325.00
2023-03-08T16:03:06.955Z,95315.00
2023-03-08T16:07:08.054Z,95338.00
2023-03-08T16:11:15.232Z,95312.00
2023-03-08T16:15:16.741Z,95300.00
2023-03-08T16:19:17.938Z,95302.00
2023-03-08T16:23:19.260Z,95312.00
2023-03-08T16:27:20.253Z,95293.00
2023-03-08T16:31:22.051Z,95286.00
2023-03-08T16:35:23.042Z,95288.00
2023-03-08T16:39:25.066Z,95288.00
2023-03-08T16:43:32.228Z,95281.00
2023-03-08T16:47:31.000Z,95296.00
2023-03-08T16:51:32.264Z,95343.00
2023-03-08T16:55:35.137Z,95397.00
2023-03-08T16:59:36.273Z,95380.00
2023-03-08T17:03:38.538Z,95375.00
2023-03-08T17:07:39.694Z,95365.00
2023-03-08T17:11:42.187Z,95367.00
2023-03-08T17:15:46.508Z,95357.00
2023-03-08T17:19:51.396Z,95365.00
2023-03-08T17:23:52.607Z,95365.00
2023-03-08T17:27:53.624Z,95348.00
2023-03-08T17:31:55.108Z,95354.00
2023-03-08T17:35:58.598Z,95354.00
2023-03-08T17:39:59.652Z,95352.00
2023-03-08T17:44:00.944Z,95362.00
2023-03-08T17:48:02.869Z,95379.00
2023-03-08T17:52:04.096Z,95356.00
2023-03-08T17:56:08.193Z,95390.00
2023-03-08T18:00:12.958Z,95360.00
2023-03-08T18:04:13.951Z,95354.00
2023-03-08T18:08:14.985Z,95344.00
2023-03-08T18:12:16.265Z,95349.00
2023-03-08T18:16:19.228Z,95337.00
2023-03-08T18:20:20.206Z,95358.00
2023-03-08T18:24:21.480Z,95363.00
2023-03-08T18:28:22.458Z,95352.00
2023-03-08T18:32:23.697Z,95367.00
2023-03-08T18:36:24.668Z,95362.00
2023-03-08T18:40:28.676Z,95363.00
2023-03-08T18:44:29.777Z,95369.00
2023-03-08T18:48:30.767Z,95360.00
2023-03-08T18:52:32.371Z,95353.00
2023-03-08T18:56:34.092Z,95355.00
2023-03-08T19:00:35.176Z,95365.00
2023-03-08T19:04:40.078Z,95375.00
2023-03-08T19:08:41.613Z,95387.00
2023-03-08T19:12:43.394Z,95377.00
2023-03-08T19:16:44.812Z,95375.00
2023-03-08T19:20:45.865Z,95373.00
2023-03-08T19:24:46.876Z,95389.00
2023-03-08T19:28:48.163Z,95381.00
2023-03-08T19:32:49.559Z,95390.00
2023-03-08T19:36:51.238Z,95384.00
2023-03-08T19:40:52.515Z,95373.00
2023-03-08T19:44:53.858Z,95372.00
2023-03-08T19:48:55.176Z,95354.00
2023-03-08T19:52:56.338Z,95342.00
2023-03-08T19:56:58.589Z,95350.00
2023-03-08T20:01:05.451Z,95348.00
2023-03-08T20:05:06.995Z,95340.00
2023-03-08T20:09:10.134Z,95356.00
2023-03-08T20:13:11.649Z,95364.00
2023-03-08T20:17:12.814Z,95377.00
2023-03-08T20:21:14.684Z,95356.00
2023-03-08T20:25:36.003Z,95371.00
2023-03-08T20:29:37.055Z,95365.00
2023-03-08T20:33:39.196Z,95366.00
2023-03-08T20:37:41.016Z,95357.00
2023-03-08T20:41:42.103Z,95358.00
2023-03-08T20:45:43.148Z,95360.00
2023-03-08T20:49:44.570Z,95364.00
2023-03-08T20:53:48.948Z,95364.00
2023-03-08T20:57:52.353Z,95378.00
2023-03-08T21:01:54.521Z,95388.00
2023-03-08T21:05:55.812Z,95376.00
2023-03-08T21:09:57.220Z,95373.00
2023-03-08T21:13:58.453Z,95371.00
2023-03-08T21:17:59.558Z,95361.00
2023-03-08T21:22:02.612Z,95365.00
2023-03-08T21:26:03.720Z,95339.00
2023-03-08T21:30:05.824Z,95334.00
2023-03-08T21:34:07.617Z,95331.00
2023-03-08T21:38:10.729Z,95315.00
2023-03-08T21:42:11.963Z,95315.00
2023-03-08T21:46:13.831Z,95318.00
2023-03-08T21:50:15.042Z,95314.00
2023-03-08T21:54:16.463Z,95312.00
2023-03-08T21:58:17.480Z,95309.00
2023-03-08T22:02:18.634Z,95293.00
2023-03-08T22:06:20.324Z,95283.00
2023-03-08T22:10:21.348Z,95285.00
2023-03-08T22:14:22.393Z,95270.00
2023-03-08T22:18:23.557Z,95273.00
2023-03-08T22:22:25.042Z,95262.00
2023-03-08T22:26:27.463Z,95261.00
2023-03-08T22:30:28.557Z,95244.00
2023-03-08T22:34:29.762Z,95244.00
2023-03-08T22:38:31.298Z,95238.00
2023-03-08T22:42:34.014Z,95238.00
2023-03-08T22:46:37.709Z,95234.00
2023-03-08T22:50:39.897Z,95231.00
2023-03-08T22:54:41.163Z,95224.00
2023-03-08T22:58:42.367Z,95217.00
2023-03-08T23:02:45.117Z,95211.00
2023-03-08T23:06:47.006Z,95201.00
2023-03-08T23:10:48.137Z,95201.00
2023-03-08T23:14:49.154Z,95182.00
2023-03-08T23:18:51.762Z,95180.00
2023-03-08T23:22:52.807Z,95184.00
2023-03-08T23:26:55.856Z,95182.00
2023-03-08T23:30:56.836Z,95175.00
2023-03-08T23:34:57.968Z,95172.00
2023-03-08T23:39:03.414Z,95170.00
2023-03-08T23:43:04.458Z,95169.00
2023-03-08T23:47:06.035Z,95168.00
2023-03-08T23:51:09.432Z,95157.00
2023-03-08T23:55:11.406Z,95149.00
2023-03-08T23:59:19.225Z,95148.00
